createdAt,value
2022-10-07T00:01:04.838Z,13.25
2022-10-07T00:03:34.947Z,14.45
2022-10-07T00:06:06.359Z,14.57
2022-10-07T00:08:35.937Z,13.38
2022-10-07T00:11:08.460Z,12.15
2022-10-07T00:13:38.943Z,11.93
2022-10-07T00:16:09.391Z,11.38
2022-10-07T00:18:37.978Z,10.48
2022-10-07T00:21:07.386Z,12.25
2022-10-07T00:23:35.422Z,11.40
2022-10-07T00:26:04.473Z,11.70
2022-10-07T00:28:32.309Z,10.48
2022-10-07T00:31:05.365Z,10.13
2022-10-07T00:33:35.824Z,10.77
2022-10-07T00:36:19.033Z,10.75
2022-10-07T00:38:50.063Z,10.25
2022-10-07T00:41:20.637Z,10.68
2022-10-07T00:43:48.582Z,10.68
2022-10-07T00:46:27.294Z,10.52
2022-10-07T00:48:55.601Z,10.90
2022-10-07T00:51:22.912Z,10.45
2022-10-07T00:53:52.645Z,10.25
2022-10-07T00:56:20.003Z,10.48
2022-10-07T00:58:49.343Z,10.23
2022-10-07T01:01:19.227Z,11.40
2022-10-07T01:03:48.950Z,11.30
2022-10-07T01:06:16.180Z,11.07
2022-10-07T01:08:45.643Z,11.82
2022-10-07T01:11:55.968Z,11.50
2022-10-07T01:14:40.027Z,11.05
2022-10-07T01:17:47.005Z,10.98
2022-10-07T01:20:32.877Z,11.45
2022-10-07T01:23:03.194Z,11.15
2022-10-07T01:25:58.386Z,10.43
2022-10-07T01:28:33.991Z,10.10
2022-10-07T01:31:05.237Z,9.90
2022-10-07T01:33:34.603Z,10.13
2022-10-07T01:36:09.464Z,10.70
2022-10-07T01:41:15.145Z,9.27
2022-10-07T01:43:44.937Z,10.05
2022-10-07T01:46:18.476Z,10.35
2022-10-07T01:48:49.193Z,9.15
2022-10-07T01:51:23.367Z,9.30
2022-10-07T01:54:33.075Z,8.37
2022-10-07T01:57:27.414Z,9.23
2022-10-07T02:00:01.731Z,9.13
2022-10-07T02:03:21.465Z,9.63
2022-10-07T02:06:04.897Z,9.38
2022-10-07T02:08:46.502Z,8.65
2022-10-07T02:11:24.525Z,9.38
2022-10-07T02:14:24.802Z,11.52
2022-10-07T02:17:05.511Z,9.30
2022-10-07T02:19:36.055Z,8.95
2022-10-07T02:22:04.232Z,9.48
2022-10-07T02:24:35.586Z,11.18
2022-10-07T02:27:11.036Z,9.88
2022-10-07T02:29:42.865Z,11.20
2022-10-07T02:32:17.902Z,9.95
2022-10-07T02:34:48.904Z,10.35
2022-10-07T02:37:24.789Z,9.25
2022-10-07T02:39:53.835Z,8.60
2022-10-07T02:42:39.406Z,8.93
2022-10-07T02:45:13.845Z,8.32
2022-10-07T02:47:47.635Z,9.90
2022-10-07T02:50:22.445Z,9.52
2022-10-07T02:52:54.475Z,8.93
2022-10-07T02:55:25.894Z,9.63
2022-10-07T02:57:57.594Z,8.48
2022-10-07T03:00:25.051Z,8.25
2022-10-07T03:02:56.388Z,8.40
2022-10-07T03:05:29.194Z,7.38
2022-10-07T03:08:03.952Z,8.93
2022-10-07T03:10:33.249Z,8.52
2022-10-07T03:13:04.983Z,8.38
2022-10-07T03:15:41.078Z,9.65
2022-10-07T03:18:26.477Z,8.93
2022-10-07T03:21:00.240Z,7.85
2022-10-07T03:23:29.524Z,8.02
2022-10-07T03:25:58.423Z,15.52
2022-10-07T03:28:28.071Z,11.68
2022-10-07T03:31:08.106Z,16.45
2022-10-07T03:33:37.468Z,19.02
2022-10-07T03:36:07.896Z,14.68
2022-10-07T03:38:35.422Z,15.32
2022-10-07T03:41:04.597Z,13.70
2022-10-07T03:43:33.537Z,12.45
2022-10-07T03:46:02.494Z,13.82
2022-10-07T03:48:32.147Z,15.27
2022-10-07T03:50:59.207Z,14.27
2022-10-07T03:53:29.781Z,11.13
2022-10-07T03:55:58.855Z,9.57
2022-10-07T03:58:26.115Z,10.45
2022-10-07T04:01:03.491Z,10.38
2022-10-07T04:03:30.750Z,12.90
2022-10-07T04:05:59.727Z,11.73
2022-10-07T04:08:32.340Z,12.75
2022-10-07T04:11:02.078Z,18.15
2022-10-07T04:13:29.847Z,16.70
2022-10-07T04:15:57.971Z,21.23
2022-10-07T04:18:26.286Z,14.80
2022-10-07T04:20:54.101Z,14.55
2022-10-07T04:23:22.244Z,16.70
2022-10-07T04:25:49.310Z,15.10
2022-10-07T04:28:26.132Z,19.27
2022-10-07T04:31:08.760Z,23.00
2022-10-07T04:33:41.466Z,17.27
2022-10-07T04:36:11.752Z,17.48
2022-10-07T04:39:02.933Z,15.82
2022-10-07T04:41:34.646Z,13.77
2022-10-07T04:44:02.638Z,13.60
2022-10-07T04:46:35.280Z,14.30
2022-10-07T04:49:13.094Z,18.17
2022-10-07T04:51:40.898Z,21.38
2022-10-07T04:54:08.447Z,18.08
2022-10-07T04:56:42.799Z,13.55
2022-10-07T04:59:12.654Z,13.68
2022-10-07T05:01:41.495Z,15.70
2022-10-07T05:04:10.872Z,16.63
2022-10-07T05:06:38.226Z,13.13
2022-10-07T05:09:05.470Z,13.93
2022-10-07T05:11:37.642Z,14.80
2022-10-07T05:14:13.060Z,13.63
2022-10-07T05:16:41.486Z,13.57
2022-10-07T05:19:12.835Z,13.82
2022-10-07T05:21:40.146Z,11.75
2022-10-07T05:24:07.663Z,12.52
2022-10-07T05:26:37.668Z,13.88
2022-10-07T05:29:07.486Z,15.07
2022-10-07T05:31:38.991Z,13.45
2022-10-07T05:34:09.187Z,13.90
2022-10-07T05:36:37.130Z,13.90
2022-10-07T05:39:07.014Z,11.00
2022-10-07T05:41:45.631Z,13.85
2022-10-07T05:44:16.617Z,12.73
2022-10-07T05:46:44.004Z,16.27
2022-10-07T05:49:13.006Z,13.90
2022-10-07T05:51:41.150Z,13.95
2022-10-07T05:54:08.735Z,16.95
2022-10-07T05:56:40.016Z,11.85
2022-10-07T05:59:07.950Z,10.63
2022-10-07T06:01:36.283Z,11.60
2022-10-07T06:04:09.076Z,13.27
2022-10-07T06:06:39.670Z,13.10
2022-10-07T06:09:29.628Z,19.90
2022-10-07T06:12:17.153Z,17.65
2022-10-07T06:14:45.924Z,12.75
2022-10-07T06:17:13.090Z,12.68
2022-10-07T06:19:42.093Z,21.45
2022-10-07T06:22:09.567Z,11.48
2022-10-07T06:24:38.463Z,8.10
2022-10-07T06:27:05.770Z,7.72
2022-10-07T06:29:32.979Z,7.15
2022-10-07T06:32:02.003Z,7.57
2022-10-07T06:34:30.286Z,8.80
2022-10-07T06:37:01.631Z,9.82
2022-10-07T06:39:29.038Z,8.60
2022-10-07T06:41:57.683Z,9.07
2022-10-07T06:44:39.799Z,9.18
2022-10-07T06:47:11.855Z,10.02
2022-10-07T06:49:41.142Z,9.52
2022-10-07T06:52:08.306Z,10.85
2022-10-07T06:54:36.432Z,13.82
2022-10-07T06:57:20.445Z,18.27
2022-10-07T06:59:51.818Z,18.50
2022-10-07T07:02:19.822Z,13.95
2022-10-07T07:04:48.429Z,10.15
2022-10-07T07:07:15.713Z,10.75
2022-10-07T07:09:43.514Z,9.38
2022-10-07T07:12:14.138Z,11.63
2022-10-07T07:14:45.096Z,9.60
2022-10-07T07:17:18.910Z,9.60
2022-10-07T07:19:46.146Z,10.13
2022-10-07T07:22:13.152Z,18.52
2022-10-07T07:24:42.447Z,18.90
2022-10-07T07:27:10.148Z,11.13
2022-10-07T07:29:37.872Z,10.73
2022-10-07T07:32:04.953Z,14.45
2022-10-07T07:34:38.183Z,12.52
2022-10-07T07:37:07.123Z,8.65
2022-10-07T07:39:39.341Z,28.40
2022-10-07T07:42:12.504Z,9.52
2022-10-07T07:44:40.252Z,10.18
2022-10-07T07:47:12.857Z,8.73
2022-10-07T07:49:40.697Z,8.68
2022-10-07T07:52:11.787Z,9.48
2022-10-07T07:54:43.921Z,10.10
2022-10-07T07:57:11.881Z,10.48
2022-10-07T07:59:39.586Z,13.73
2022-10-07T08:02:12.404Z,13.15
2022-10-07T08:04:43.264Z,16.88
2022-10-07T08:07:13.086Z,14.85
2022-10-07T08:09:42.970Z,11.68
2022-10-07T08:12:10.490Z,14.10
2022-10-07T08:14:38.311Z,11.10
2022-10-07T08:17:06.850Z,11.50
2022-10-07T08:19:34.895Z,9.82
2022-10-07T08:22:04.588Z,11.18
2022-10-07T08:24:32.665Z,14.10
2022-10-07T08:26:59.727Z,13.05
2022-10-07T08:29:26.836Z,10.93
2022-10-07T08:31:54.187Z,9.32
2022-10-07T08:34:21.437Z,16.10
2022-10-07T08:36:50.537Z,7.20
2022-10-07T08:39:20.033Z,8.30
2022-10-07T08:41:55.601Z,8.73
2022-10-07T08:44:23.202Z,7.25
2022-10-07T08:47:16.347Z,13.75
2022-10-07T08:49:46.650Z,8.20
2022-10-07T08:52:33.508Z,9.38
2022-10-07T08:55:01.894Z,6.85
2022-10-07T08:58:09.722Z,6.97
2022-10-07T09:00:51.981Z,9.85
2022-10-07T09:03:33.358Z,5.32
2022-10-07T09:06:06.328Z,9.07
2022-10-07T09:08:41.296Z,7.72
2022-10-07T09:11:16.579Z,5.43
2022-10-07T09:13:54.478Z,5.68
2022-10-07T09:16:29.709Z,5.70
2022-10-07T09:19:02.441Z,7.20
2022-10-07T09:21:32.966Z,7.03
2022-10-07T09:24:20.640Z,4.55
2022-10-07T09:26:48.558Z,5.90
2022-10-07T09:29:19.347Z,5.15
2022-10-07T09:31:47.197Z,5.50
2022-10-07T09:34:26.084Z,5.30
2022-10-07T09:37:20.875Z,5.32
2022-10-07T09:39:50.546Z,4.05
2022-10-07T09:42:25.108Z,4.10
2022-10-07T09:44:54.833Z,6.40
2022-10-07T09:47:28.991Z,6.93
2022-10-07T09:49:59.772Z,4.90
2022-10-07T09:52:29.862Z,4.22
2022-10-07T09:55:17.810Z,3.92
2022-10-07T09:58:00.170Z,3.35
2022-10-07T10:00:28.595Z,3.00
2022-10-07T10:03:05.544Z,3.10
2022-10-07T10:05:38.733Z,3.50
2022-10-07T10:08:21.146Z,2.42
2022-10-07T10:10:57.050Z,2.67
2022-10-07T10:13:27.236Z,3.15
2022-10-07T10:15:54.409Z,2.75
2022-10-07T10:18:27.611Z,3.60
2022-10-07T10:20:55.333Z,3.30
2022-10-07T10:23:36.132Z,3.53
2022-10-07T10:26:32.800Z,3.90
2022-10-07T10:29:37.134Z,2.67
2022-10-07T10:32:43.436Z,7.75
2022-10-07T10:35:28.419Z,5.70
2022-10-07T10:38:08.592Z,3.50
2022-10-07T10:40:40.851Z,3.53
2022-10-07T10:43:36.647Z,4.10
2022-10-07T10:46:31.120Z,3.80
2022-10-07T10:49:27.343Z,3.15
2022-10-07T10:52:13.219Z,5.20
2022-10-07T10:54:50.652Z,5.70
2022-10-07T10:57:33.109Z,3.70
2022-10-07T11:00:12.805Z,4.53
2022-10-07T11:02:40.752Z,4.75
2022-10-07T11:05:17.446Z,3.10
2022-10-07T11:07:51.215Z,2.97
2022-10-07T11:10:25.794Z,4.43
2022-10-07T11:15:35.642Z,3.65
2022-10-07T11:18:12.115Z,4.65
2022-10-07T11:20:47.949Z,4.82
2022-10-07T11:23:30.960Z,3.72
2022-10-07T11:26:03.069Z,6.88
2022-10-07T11:28:36.931Z,9.98
2022-10-07T11:31:12.512Z,6.90
2022-10-07T11:33:49.067Z,21.63
2022-10-07T11:36:21.772Z,24.42
2022-10-07T11:38:52.640Z,7.72
2022-10-07T11:41:32.298Z,46.38
2022-10-07T11:44:08.783Z,10.95
2022-10-07T11:46:45.610Z,8.93
2022-10-07T11:49:29.960Z,6.25
2022-10-07T11:52:07.507Z,21.33
2022-10-07T11:54:46.907Z,5.97
2022-10-07T11:57:26.882Z,5.05
2022-10-07T12:00:08.408Z,5.25
2022-10-07T12:02:48.757Z,7.18
2022-10-07T12:05:34.329Z,7.10
2022-10-07T12:08:23.832Z,5.10
2022-10-07T12:10:55.670Z,22.33
2022-10-07T12:13:22.681Z,14.65
2022-10-07T12:15:51.242Z,9.70
2022-10-07T12:18:27.652Z,8.85
2022-10-07T12:21:03.275Z,9.98
2022-10-07T12:23:31.098Z,5.07
2022-10-07T12:26:31.239Z,4.15
2022-10-07T12:28:59.290Z,4.53
2022-10-07T12:31:26.285Z,2.85
2022-10-07T12:34:10.495Z,2.80
2022-10-07T12:36:40.787Z,3.43
2022-10-07T12:39:09.602Z,2.83
2022-10-07T12:41:40.053Z,3.85
2022-10-07T12:44:47.236Z,3.85
2022-10-07T12:47:29.572Z,5.75
2022-10-07T12:50:02.444Z,13.60
2022-10-07T12:52:42.987Z,10.48
2022-10-07T12:55:19.442Z,3.83
2022-10-07T12:57:52.548Z,12.60
2022-10-07T13:00:24.819Z,4.03
2022-10-07T13:03:43.815Z,2.30
2022-10-07T13:06:32.712Z,2.70
2022-10-07T13:09:38.925Z,4.70
2022-10-07T13:12:34.000Z,3.80
2022-10-07T13:15:09.215Z,3.53
2022-10-07T13:17:59.329Z,6.85
2022-10-07T13:20:51.940Z,4.75
2022-10-07T13:23:26.768Z,2.67
2022-10-07T13:25:57.493Z,3.40
2022-10-07T13:28:49.641Z,5.57
2022-10-07T13:31:20.667Z,3.80
2022-10-07T13:33:51.770Z,2.53
2022-10-07T13:36:23.102Z,3.55
2022-10-07T13:39:13.804Z,5.90
2022-10-07T13:41:45.302Z,3.80
2022-10-07T13:44:15.656Z,3.80
2022-10-07T13:47:00.245Z,6.30
2022-10-07T13:49:40.913Z,4.00
2022-10-07T13:52:21.695Z,3.20
2022-10-07T13:54:53.191Z,3.72
2022-10-07T13:57:22.170Z,3.63
2022-10-07T13:59:53.180Z,4.07
2022-10-07T14:04:54.458Z,4.65
2022-10-07T14:07:21.971Z,4.32
2022-10-07T14:10:04.881Z,4.75
2022-10-07T14:12:48.951Z,3.47
2022-10-07T14:15:24.663Z,6.13
2022-10-07T14:18:06.402Z,4.38
2022-10-07T14:20:39.064Z,7.28
2022-10-07T14:23:17.691Z,8.95
2022-10-07T14:25:47.776Z,9.75
2022-10-07T14:28:25.339Z,6.00
2022-10-07T14:31:27.214Z,8.63
2022-10-07T14:34:46.820Z,8.27
2022-10-07T14:37:19.626Z,6.25
2022-10-07T14:39:49.048Z,5.60
2022-10-07T14:42:24.968Z,6.50
2022-10-07T14:44:54.902Z,5.57
2022-10-07T14:47:28.233Z,4.38
2022-10-07T14:49:59.481Z,12.10
2022-10-07T14:52:31.581Z,5.95
2022-10-07T14:55:02.401Z,4.75
2022-10-07T14:57:29.460Z,5.25
2022-10-07T14:59:56.690Z,8.00
2022-10-07T15:02:23.733Z,21.27
2022-10-07T15:04:50.971Z,25.90
2022-10-07T15:07:18.424Z,26.48
2022-10-07T15:09:46.724Z,28.92
2022-10-07T15:12:15.357Z,25.20
2022-10-07T15:14:42.951Z,46.15
2022-10-07T15:17:12.330Z,32.20
2022-10-07T15:19:39.915Z,25.17
2022-10-07T15:22:07.075Z,26.13
2022-10-07T15:24:35.800Z,27.73
2022-10-07T15:27:02.859Z,25.02
2022-10-07T15:29:30.042Z,31.35
2022-10-07T15:31:58.652Z,22.42
2022-10-07T15:34:25.886Z,22.52
2022-10-07T15:36:53.279Z,20.10
2022-10-07T15:39:20.282Z,24.17
2022-10-07T15:41:48.495Z,57.58
2022-10-07T15:44:18.215Z,54.17
2022-10-07T15:46:48.528Z,39.58
2022-10-07T15:49:19.416Z,23.50
2022-10-07T15:51:46.895Z,14.60
2022-10-07T15:54:14.525Z,9.70
2022-10-07T15:56:42.925Z,8.32
2022-10-07T15:59:10.296Z,9.82
2022-10-07T16:01:37.649Z,11.65
2022-10-07T16:04:06.006Z,24.42
2022-10-07T16:06:35.262Z,26.10
2022-10-07T16:09:02.606Z,31.58
2022-10-07T16:11:32.092Z,45.85
2022-10-07T16:14:01.940Z,19.92
2022-10-07T16:16:31.399Z,25.70
2022-10-07T16:19:00.491Z,37.05
2022-10-07T16:21:39.379Z,36.50
2022-10-07T16:24:11.497Z,36.78
2022-10-07T16:26:38.738Z,82.25
2022-10-07T16:29:27.112Z,74.05
2022-10-07T16:31:58.905Z,114.10
2022-10-07T16:34:28.352Z,105.57
2022-10-07T16:36:57.920Z,82.30
2022-10-07T16:39:25.382Z,77.35
2022-10-07T16:41:53.080Z,54.30
2022-10-07T16:44:21.071Z,70.00
2022-10-07T16:46:49.331Z,87.00
2022-10-07T16:49:18.114Z,94.95
2022-10-07T16:51:46.545Z,92.50
2022-10-07T16:54:16.956Z,62.33
2022-10-07T16:56:50.842Z,53.25
2022-10-07T16:59:23.296Z,50.63
2022-10-07T17:01:56.270Z,51.72
2022-10-07T17:04:25.184Z,42.75
2022-10-07T17:06:53.422Z,43.85
2022-10-07T17:09:21.891Z,63.83
2022-10-07T17:11:49.389Z,39.28
2022-10-07T17:14:18.882Z,37.95
2022-10-07T17:17:12.473Z,26.45
2022-10-07T17:19:39.759Z,23.75
2022-10-07T17:22:07.875Z,23.00
2022-10-07T17:24:35.704Z,33.30
2022-10-07T17:27:02.995Z,34.40
2022-10-07T17:29:33.330Z,46.35
2022-10-07T17:32:06.862Z,45.92
2022-10-07T17:34:34.262Z,70.13
2022-10-07T17:37:01.309Z,68.80
2022-10-07T17:39:31.207Z,52.42
2022-10-07T17:41:58.209Z,50.60
2022-10-07T17:44:25.743Z,50.53
2022-10-07T17:46:53.142Z,34.25
2022-10-07T17:49:20.693Z,22.45
2022-10-07T17:51:47.967Z,25.38
2022-10-07T17:54:16.509Z,27.98
2022-10-07T17:56:44.497Z,25.77
2022-10-07T17:59:12.643Z,30.27
2022-10-07T18:01:41.251Z,36.00
2022-10-07T18:04:13.438Z,33.25
2022-10-07T18:06:43.295Z,29.38
2022-10-07T18:09:18.591Z,29.80
2022-10-07T18:12:04.468Z,25.25
2022-10-07T18:14:53.829Z,21.13
2022-10-07T18:17:22.560Z,17.67
2022-10-07T18:19:50.153Z,18.88
2022-10-07T18:22:17.398Z,19.10
2022-10-07T18:24:44.578Z,17.15
2022-10-07T18:27:12.866Z,16.33
2022-10-07T18:29:40.537Z,13.85
2022-10-07T18:32:08.109Z,11.80
2022-10-07T18:34:35.413Z,13.25
2022-10-07T18:37:02.739Z,13.50
2022-10-07T18:39:29.954Z,12.65
2022-10-07T18:41:58.313Z,15.30
2022-10-07T18:44:26.055Z,16.42
2022-10-07T18:46:53.683Z,18.98
2022-10-07T18:49:21.252Z,19.52
2022-10-07T18:51:50.592Z,16.85
2022-10-07T18:54:19.818Z,15.60
2022-10-07T18:56:48.245Z,17.23
2022-10-07T18:59:16.295Z,20.15
2022-10-07T19:01:47.909Z,17.23
2022-10-07T19:04:18.422Z,15.45
2022-10-07T19:06:46.231Z,16.13
2022-10-07T19:09:16.702Z,14.02
2022-10-07T19:11:45.021Z,15.32
2022-10-07T19:14:13.200Z,16.08
2022-10-07T19:16:45.554Z,19.48
2022-10-07T19:19:19.073Z,29.38
2022-10-07T19:21:48.662Z,37.83
2022-10-07T19:24:16.832Z,35.47
2022-10-07T19:26:47.602Z,33.25
2022-10-07T19:29:16.640Z,24.05
2022-10-07T19:31:47.030Z,19.35
2022-10-07T19:34:24.133Z,18.05
2022-10-07T19:36:57.524Z,18.48
2022-10-07T19:39:24.897Z,19.00
2022-10-07T19:41:52.422Z,18.58
2022-10-07T19:44:22.297Z,17.02
2022-10-07T19:46:54.201Z,15.52
2022-10-07T19:49:22.255Z,17.92
2022-10-07T19:51:49.367Z,16.02
2022-10-07T19:54:16.620Z,13.77
2022-10-07T19:56:45.313Z,13.05
2022-10-07T19:59:14.212Z,14.85
2022-10-07T20:01:44.158Z,16.38
2022-10-07T20:04:13.537Z,15.52
2022-10-07T20:06:41.638Z,16.55
2022-10-07T20:09:12.509Z,15.93
2022-10-07T20:11:39.999Z,19.48
2022-10-07T20:14:07.686Z,17.85
2022-10-07T20:16:37.274Z,21.60
2022-10-07T20:19:13.901Z,27.90
2022-10-07T20:21:41.781Z,19.05
2022-10-07T20:24:09.386Z,19.73
2022-10-07T20:26:38.380Z,17.20
2022-10-07T20:29:08.943Z,17.83
2022-10-07T20:31:39.205Z,16.17
2022-10-07T20:34:07.887Z,18.25
2022-10-07T20:36:37.652Z,17.35
2022-10-07T20:39:28.275Z,18.45
2022-10-07T20:42:14.090Z,18.30
2022-10-07T20:44:41.392Z,16.15
2022-10-07T20:47:09.999Z,16.75
2022-10-07T20:49:41.213Z,16.60
2022-10-07T20:52:16.656Z,16.00
2022-10-07T20:54:44.725Z,16.58
2022-10-07T20:57:16.539Z,16.23
2022-10-07T20:59:44.425Z,16.92
2022-10-07T21:02:13.549Z,16.83
2022-10-07T21:04:40.881Z,17.88
2022-10-07T21:07:09.099Z,16.67
2022-10-07T21:09:36.733Z,19.15
2022-10-07T21:12:07.419Z,16.52
2022-10-07T21:14:35.530Z,15.75
2022-10-07T21:17:05.104Z,14.27
2022-10-07T21:19:34.072Z,14.27
2022-10-07T21:22:02.679Z,15.43
2022-10-07T21:24:30.925Z,14.95
2022-10-07T21:26:58.117Z,14.18
2022-10-07T21:29:25.466Z,16.15
2022-10-07T21:31:53.269Z,14.25
2022-10-07T21:34:20.939Z,13.75
2022-10-07T21:36:52.963Z,14.13
2022-10-07T21:39:21.533Z,14.60
2022-10-07T21:41:49.392Z,13.50
2022-10-07T21:44:16.721Z,13.32
2022-10-07T21:46:45.602Z,13.15
2022-10-07T21:49:14.383Z,14.20
2022-10-07T21:51:41.939Z,14.20
2022-10-07T21:54:14.608Z,14.18
2022-10-07T21:56:43.712Z,14.00
2022-10-07T21:59:11.318Z,14.00
2022-10-07T22:01:38.903Z,15.25
2022-10-07T22:04:07.455Z,13.77
2022-10-07T22:06:53.611Z,14.15
2022-10-07T22:09:21.438Z,15.55
2022-10-07T22:12:32.240Z,15.18
2022-10-07T22:15:01.243Z,15.07
2022-10-07T22:17:28.696Z,15.10
2022-10-07T22:19:55.806Z,14.32
2022-10-07T22:22:25.428Z,13.55
2022-10-07T22:24:52.957Z,15.30
2022-10-07T22:27:20.130Z,16.10
2022-10-07T22:29:48.363Z,14.27
2022-10-07T22:32:15.623Z,15.27
2022-10-07T22:35:01.170Z,17.13
2022-10-07T22:37:29.402Z,14.65
2022-10-07T22:39:56.371Z,14.82
2022-10-07T22:42:23.367Z,14.30
2022-10-07T22:44:50.691Z,14.68
2022-10-07T22:47:17.685Z,15.35
2022-10-07T22:49:48.322Z,15.13
2022-10-07T22:52:15.582Z,14.23
2022-10-07T22:54:42.734Z,15.05
2022-10-07T22:57:09.831Z,14.27
2022-10-07T22:59:38.926Z,15.00
2022-10-07T23:02:06.018Z,15.18
2022-10-07T23:04:32.980Z,15.88
2022-10-07T23:07:00.172Z,17.00
2022-10-07T23:09:27.172Z,16.88
2022-10-07T23:11:54.276Z,15.48
2022-10-07T23:14:21.469Z,16.30
2022-10-07T23:16:48.456Z,15.32
2022-10-07T23:19:17.969Z,15.98
2022-10-07T23:21:45.141Z,15.60
2022-10-07T23:24:12.728Z,16.38
2022-10-07T23:26:39.931Z,14.00
2022-10-07T23:29:07.823Z,15.68
2022-10-07T23:31:34.907Z,16.20
2022-10-07T23:34:03.164Z,16.77
2022-10-07T23:36:31.269Z,15.27
2022-10-07T23:39:02.793Z,17.98
2022-10-07T23:41:31.548Z,16.85
2022-10-07T23:44:15.996Z,17.23
2022-10-07T23:46:45.803Z,16.08
2022-10-07T23:49:13.336Z,15.90
2022-10-07T23:51:40.408Z,15.93
2022-10-07T23:54:07.477Z,16.05
2022-10-07T23:56:34.830Z,17.20
2022-10-07T23:59:02.744Z,17.52
